sensor_id;sensor_type;location;lat;lon;timestamp;pressure;altitude;pressure_sealevel;temperature;humidity
18533;BME280;9396;51.510;11.934;2023-08-06T00:00:19;99636.91;;;19.11;96.73
18533;BME280;9396;51.510;11.934;2023-08-06T00:02:46;99639.75;;;19.16;96.71
18533;BME280;9396;51.510;11.934;2023-08-06T00:05:13;99627.75;;;19.12;97.02
18533;BME280;9396;51.510;11.934;2023-08-06T00:07:43;99633.97;;;19.13;96.80
18533;BME280;9396;51.510;11.934;2023-08-06T00:10:10;99633.16;;;19.12;96.71
18533;BME280;9396;51.510;11.934;2023-08-06T00:12:36;99631.72;;;19.10;96.64
18533;BME280;9396;51.510;11.934;2023-08-06T00:15:05;99623.06;;;19.08;97.31
18533;BME280;9396;51.510;11.934;2023-08-06T00:17:33;99630.53;;;19.06;97.20
18533;BME280;9396;51.510;11.934;2023-08-06T00:20:00;99634.84;;;18.77;97.66
18533;BME280;9396;51.510;11.934;2023-08-06T00:22:30;99636.47;;;18.60;97.69
18533;BME280;9396;51.510;11.934;2023-08-06T00:24:56;99633.47;;;18.50;98.34
18533;BME280;9396;51.510;11.934;2023-08-06T00:27:23;99633.94;;;18.47;98.76
18533;BME280;9396;51.510;11.934;2023-08-06T00:29:50;99629.72;;;18.51;98.40
18533;BME280;9396;51.510;11.934;2023-08-06T00:32:18;99634.97;;;18.46;98.54
18533;BME280;9396;51.510;11.934;2023-08-06T00:34:45;99637.38;;;18.54;98.60
18533;BME280;9396;51.510;11.934;2023-08-06T00:37:11;99625.63;;;18.67;97.89
18533;BME280;9396;51.510;11.934;2023-08-06T00:39:38;99617.84;;;18.77;97.22
18533;BME280;9396;51.510;11.934;2023-08-06T00:42:05;99627.50;;;18.84;96.53
18533;BME280;9396;51.510;11.934;2023-08-06T00:44:31;99623.75;;;18.85;96.37
18533;BME280;9396;51.510;11.934;2023-08-06T00:46:58;99638.28;;;18.84;97.17
18533;BME280;9396;51.510;11.934;2023-08-06T00:49:26;99630.19;;;18.84;97.20
18533;BME280;9396;51.510;11.934;2023-08-06T00:51:53;99635.13;;;18.87;97.32
18533;BME280;9396;51.510;11.934;2023-08-06T00:54:20;99634.47;;;18.74;97.47
18533;BME280;9396;51.510;11.934;2023-08-06T00:56:47;99632.81;;;18.73;97.86
18533;BME280;9396;51.510;11.934;2023-08-06T00:59:14;99634.69;;;18.72;97.67
18533;BME280;9396;51.510;11.934;2023-08-06T01:01:40;99629.22;;;18.61;98.11
18533;BME280;9396;51.510;11.934;2023-08-06T01:04:07;99626.09;;;18.46;98.18
18533;BME280;9396;51.510;11.934;2023-08-06T01:06:40;99627.06;;;18.27;98.25
18533;BME280;9396;51.510;11.934;2023-08-06T01:09:20;99628.66;;;18.34;97.58
18533;BME280;9396;51.510;11.934;2023-08-06T01:11:59;99621.84;;;18.07;95.46
18533;BME280;9396;51.510;11.934;2023-08-06T01:14:34;99616.38;;;18.20;94.92
18533;BME280;9396;51.510;11.934;2023-08-06T01:17:04;99608.63;;;18.05;94.41
18533;BME280;9396;51.510;11.934;2023-08-06T01:19:31;99588.69;;;18.13;95.25
18533;BME280;9396;51.510;11.934;2023-08-06T01:21:59;99585.16;;;18.12;95.20
18533;BME280;9396;51.510;11.934;2023-08-06T01:24:25;99575.44;;;18.11;95.25
18533;BME280;9396;51.510;11.934;2023-08-06T01:26:58;99573.41;;;18.07;94.48
18533;BME280;9396;51.510;11.934;2023-08-06T01:29:33;99565.34;;;18.07;94.95
18533;BME280;9396;51.510;11.934;2023-08-06T01:32:01;99554.94;;;18.10;94.62
18533;BME280;9396;51.510;11.934;2023-08-06T01:34:32;99556.84;;;18.10;94.78
18533;BME280;9396;51.510;11.934;2023-08-06T01:37:02;99552.06;;;18.12;93.85
18533;BME280;9396;51.510;11.934;2023-08-06T01:39:32;99548.72;;;17.92;94.74
18533;BME280;9396;51.510;11.934;2023-08-06T01:41:59;99551.50;;;18.03;95.12
18533;BME280;9396;51.510;11.934;2023-08-06T01:44:26;99549.16;;;17.89;94.83
18533;BME280;9396;51.510;11.934;2023-08-06T01:46:52;99547.03;;;17.97;94.84
18533;BME280;9396;51.510;11.934;2023-08-06T01:49:19;99547.47;;;18.12;94.21
18533;BME280;9396;51.510;11.934;2023-08-06T01:51:46;99552.72;;;18.07;94.90
18533;BME280;9396;51.510;11.934;2023-08-06T01:54:14;99560.25;;;17.99;96.49
18533;BME280;9396;51.510;11.934;2023-08-06T01:56:40;99558.59;;;17.98;97.13
18533;BME280;9396;51.510;11.934;2023-08-06T01:59:07;99566.72;;;17.91;97.53
18533;BME280;9396;51.510;11.934;2023-08-06T02:01:33;99561.47;;;18.03;95.97
18533;BME280;9396;51.510;11.934;2023-08-06T02:04:00;99557.88;;;18.09;95.41
18533;BME280;9396;51.510;11.934;2023-08-06T02:06:27;99548.00;;;18.03;95.81
18533;BME280;9396;51.510;11.934;2023-08-06T02:08:53;99550.00;;;18.07;95.45
18533;BME280;9396;51.510;11.934;2023-08-06T02:11:21;99549.38;;;18.12;95.69
18533;BME280;9396;51.510;11.934;2023-08-06T02:13:48;99543.44;;;18.22;94.59
18533;BME280;9396;51.510;11.934;2023-08-06T02:16:15;99532.28;;;18.18;94.43
18533;BME280;9396;51.510;11.934;2023-08-06T02:18:41;99535.31;;;18.10;94.79
18533;BME280;9396;51.510;11.934;2023-08-06T02:21:08;99526.72;;;17.77;95.93
18533;BME280;9396;51.510;11.934;2023-08-06T02:23:34;99520.94;;;17.73;96.83
18533;BME280;9396;51.510;11.934;2023-08-06T02:26:02;99512.75;;;17.86;96.12
18533;BME280;9396;51.510;11.934;2023-08-06T02:28:31;99510.09;;;17.62;97.50
18533;BME280;9396;51.510;11.934;2023-08-06T02:30:58;99505.75;;;17.61;97.66
18533;BME280;9396;51.510;11.934;2023-08-06T02:33:24;99503.41;;;17.71;97.80
18533;BME280;9396;51.510;11.934;2023-08-06T02:35:51;99498.97;;;17.58;97.67
18533;BME280;9396;51.510;11.934;2023-08-06T02:38:24;99494.44;;;17.77;97.33
18533;BME280;9396;51.510;11.934;2023-08-06T02:40:51;99494.31;;;17.90;96.84
18533;BME280;9396;51.510;11.934;2023-08-06T02:43:18;99495.78;;;17.86;96.45
18533;BME280;9396;51.510;11.934;2023-08-06T02:45:46;99491.16;;;17.93;96.61
18533;BME280;9396;51.510;11.934;2023-08-06T02:48:12;99491.47;;;18.03;96.46
18533;BME280;9396;51.510;11.934;2023-08-06T02:50:39;99484.34;;;18.08;96.10
18533;BME280;9396;51.510;11.934;2023-08-06T02:53:06;99475.91;;;18.05;95.67
18533;BME280;9396;51.510;11.934;2023-08-06T02:55:33;99485.19;;;18.09;95.68
18533;BME280;9396;51.510;11.934;2023-08-06T02:58:00;99470.69;;;18.10;96.30
18533;BME280;9396;51.510;11.934;2023-08-06T03:00:27;99482.63;;;18.14;96.85
18533;BME280;9396;51.510;11.934;2023-08-06T03:02:55;99481.38;;;18.16;97.00
18533;BME280;9396;51.510;11.934;2023-08-06T03:05:21;99477.06;;;18.15;96.67
18533;BME280;9396;51.510;11.934;2023-08-06T03:07:48;99477.94;;;18.09;96.43
18533;BME280;9396;51.510;11.934;2023-08-06T03:10:15;99483.56;;;18.08;96.34
18533;BME280;9396;51.510;11.934;2023-08-06T03:12:41;99479.56;;;18.10;97.28
18533;BME280;9396;51.510;11.934;2023-08-06T03:15:09;99474.00;;;18.12;97.60
18533;BME280;9396;51.510;11.934;2023-08-06T03:17:36;99466.28;;;18.15;96.74
18533;BME280;9396;51.510;11.934;2023-08-06T03:20:05;99464.75;;;18.19;95.76
18533;BME280;9396;51.510;11.934;2023-08-06T03:22:32;99467.69;;;18.18;95.99
18533;BME280;9396;51.510;11.934;2023-08-06T03:24:58;99458.22;;;18.15;96.59
18533;BME280;9396;51.510;11.934;2023-08-06T03:27:25;99462.31;;;18.18;96.36
18533;BME280;9396;51.510;11.934;2023-08-06T03:29:51;99462.63;;;18.10;96.05
18533;BME280;9396;51.510;11.934;2023-08-06T03:32:18;99455.56;;;18.09;96.07
18533;BME280;9396;51.510;11.934;2023-08-06T03:34:45;99459.69;;;18.11;96.48
18533;BME280;9396;51.510;11.934;2023-08-06T03:37:13;99456.31;;;18.16;96.94
18533;BME280;9396;51.510;11.934;2023-08-06T03:39:40;99456.53;;;18.14;96.95
18533;BME280;9396;51.510;11.934;2023-08-06T03:42:06;99458.56;;;18.19;96.99
18533;BME280;9396;51.510;11.934;2023-08-06T03:44:33;99448.84;;;18.18;97.18
18533;BME280;9396;51.510;11.934;2023-08-06T03:47:00;99454.22;;;18.18;97.55
18533;BME280;9396;51.510;11.934;2023-08-06T03:49:26;99458.22;;;18.15;97.75
18533;BME280;9396;51.510;11.934;2023-08-06T03:51:53;99461.94;;;18.14;98.06
18533;BME280;9396;51.510;11.934;2023-08-06T03:54:21;99461.94;;;18.14;97.42
18533;BME280;9396;51.510;11.934;2023-08-06T03:56:48;99456.31;;;18.16;96.82
18533;BME280;9396;51.510;11.934;2023-08-06T03:59:14;99458.22;;;18.15;97.13
18533;BME280;9396;51.510;11.934;2023-08-06T04:01:41;99453.03;;;18.14;97.45
18533;BME280;9396;51.510;11.934;2023-08-06T04:04:07;99449.16;;;18.10;97.52
18533;BME280;9396;51.510;11.934;2023-08-06T04:06:34;99456.63;;;18.08;97.18
18533;BME280;9396;51.510;11.934;2023-08-06T04:09:01;99460.34;;;18.07;96.92
18533;BME280;9396;51.510;11.934;2023-08-06T04:11:29;99454.38;;;18.05;97.36
18533;BME280;9396;51.510;11.934;2023-08-06T04:13:56;99462.16;;;17.95;97.27
18533;BME280;9396;51.510;11.934;2023-08-06T04:16:22;99456.47;;;17.85;98.09
18533;BME280;9396;51.510;11.934;2023-08-06T04:18:51;99463.13;;;17.82;98.37
18533;BME280;9396;51.510;11.934;2023-08-06T04:21:18;99463.56;;;17.79;97.89
18533;BME280;9396;51.510;11.934;2023-08-06T04:23:45;99456.16;;;17.75;98.43
18533;BME280;9396;51.510;11.934;2023-08-06T04:26:12;99462.69;;;17.67;99.17
18533;BME280;9396;51.510;11.934;2023-08-06T04:28:40;99452.72;;;17.68;99.28
18533;BME280;9396;51.510;11.934;2023-08-06T04:31:06;99453.28;;;17.76;98.90
18533;BME280;9396;51.510;11.934;2023-08-06T04:33:33;99455.28;;;17.81;98.44
18533;BME280;9396;51.510;11.934;2023-08-06T04:36:00;99446.38;;;17.80;98.61
18533;BME280;9396;51.510;11.934;2023-08-06T04:38:27;99444.81;;;17.73;99.34
18533;BME280;9396;51.510;11.934;2023-08-06T04:40:54;99444.38;;;17.76;99.66
18533;BME280;9396;51.510;11.934;2023-08-06T04:43:20;99442.63;;;17.63;99.77
18533;BME280;9396;51.510;11.934;2023-08-06T04:45:48;99438.66;;;17.48;100.00
18533;BME280;9396;51.510;11.934;2023-08-06T04:48:15;99438.22;;;17.51;100.00
18533;BME280;9396;51.510;11.934;2023-08-06T04:50:45;99443.38;;;17.52;100.00
18533;BME280;9396;51.510;11.934;2023-08-06T04:53:12;99431.88;;;17.63;100.00
18533;BME280;9396;51.510;11.934;2023-08-06T04:55:39;99435.91;;;17.54;100.00
18533;BME280;9396;51.510;11.934;2023-08-06T04:58:06;99441.59;;;17.40;100.00
18533;BME280;9396;51.510;11.934;2023-08-06T05:00:33;99439.84;;;17.52;100.00
18533;BME280;9396;51.510;11.934;2023-08-06T05:03:01;99436.88;;;17.60;100.00
18533;BME280;9396;51.510;11.934;2023-08-06T05:05:28;99440.31;;;17.67;100.00
18533;BME280;9396;51.510;11.934;2023-08-06T05:07:56;99434.94;;;17.67;100.00
18533;BME280;9396;51.510;11.934;2023-08-06T05:10:24;99435.41;;;17.64;100.00
18533;BME280;9396;51.510;11.934;2023-08-06T05:12:51;99433.28;;;17.48;100.00
18533;BME280;9396;51.510;11.934;2023-08-06T05:15:17;99430.59;;;17.48;100.00
18533;BME280;9396;51.510;11.934;2023-08-06T05:17:44;99433.28;;;17.48;100.00
18533;BME280;9396;51.510;11.934;2023-08-06T05:20:12;99430.53;;;17.54;100.00
18533;BME280;9396;51.510;11.934;2023-08-06T05:22:39;99420.00;;;17.53;100.00
18533;BME280;9396;51.510;11.934;2023-08-06T05:25:06;99420.44;;;17.50;100.00
18533;BME280;9396;51.510;11.934;2023-08-06T05:27:33;99425.75;;;17.56;100.00
18533;BME280;9396;51.510;11.934;2023-08-06T05:30:00;99425.16;;;17.54;100.00
18533;BME280;9396;51.510;11.934;2023-08-06T05:32:26;99433.97;;;17.37;100.00
18533;BME280;9396;51.510;11.934;2023-08-06T05:34:53;99433.38;;;17.35;100.00
18533;BME280;9396;51.510;11.934;2023-08-06T05:37:21;99430.00;;;17.39;100.00
18533;BME280;9396;51.510;11.934;2023-08-06T05:39:47;99434.44;;;17.34;100.00
18533;BME280;9396;51.510;11.934;2023-08-06T05:42:14;99434.19;;;17.35;100.00
18533;BME280;9396;51.510;11.934;2023-08-06T05:44:41;99432.69;;;17.39;100.00
18533;BME280;9396;51.510;11.934;2023-08-06T05:47:07;99432.03;;;17.44;100.00
18533;BME280;9396;51.510;11.934;2023-08-06T05:49:34;99426.44;;;17.45;100.00
18533;BME280;9396;51.510;11.934;2023-08-06T05:52:01;99430.16;;;17.51;100.00
18533;BME280;9396;51.510;11.934;2023-08-06T05:54:29;99420.00;;;17.46;100.00
18533;BME280;9396;51.510;11.934;2023-08-06T05:56:56;99415.06;;;17.50;100.00
18533;BME280;9396;51.510;11.934;2023-08-06T05:59:22;99422.53;;;17.48;100.00
18533;BME280;9396;51.510;11.934;2023-08-06T06:01:49;99429.97;;;17.46;100.00
18533;BME280;9396;51.510;11.934;2023-08-06T06:04:16;99427.28;;;17.46;100.00
18533;BME280;9396;51.510;11.934;2023-08-06T06:06:42;99418.66;;;17.62;100.00
18533;BME280;9396;51.510;11.934;2023-08-06T06:09:10;99412.59;;;17.66;100.00
18533;BME280;9396;51.510;11.934;2023-08-06T06:11:38;99417.00;;;17.61;100.00
18533;BME280;9396;51.510;11.934;2023-08-06T06:14:04;99414.78;;;17.76;100.00
18533;BME280;9396;51.510;11.934;2023-08-06T06:16:31;99406.34;;;17.90;100.00
18533;BME280;9396;51.510;11.934;2023-08-06T06:18:58;99405.88;;;17.93;100.00
18533;BME280;9396;51.510;11.934;2023-08-06T06:21:24;99402.22;;;17.88;100.00
18533;BME280;9396;51.510;11.934;2023-08-06T06:23:51;99404.06;;;17.87;100.00
18533;BME280;9396;51.510;11.934;2023-08-06T06:26:18;99397.66;;;17.88;100.00
18533;BME280;9396;51.510;11.934;2023-08-06T06:28:46;99398.53;;;17.82;100.00
18533;BME280;9396;51.510;11.934;2023-08-06T06:31:13;99400.84;;;17.97;100.00
18533;BME280;9396;51.510;11.934;2023-08-06T06:33:39;99388.38;;;18.02;100.00
18533;BME280;9396;51.510;11.934;2023-08-06T06:36:06;99391.72;;;17.98;100.00
18533;BME280;9396;51.510;11.934;2023-08-06T06:38:33;99388.75;;;18.06;100.00
18533;BME280;9396;51.510;11.934;2023-08-06T06:41:00;99388.59;;;18.19;100.00
18533;BME280;9396;51.510;11.934;2023-08-06T06:43:28;99393.38;;;17.99;100.00
18533;BME280;9396;51.510;11.934;2023-08-06T06:45:57;99389.47;;;18.13;100.00
18533;BME280;9396;51.510;11.934;2023-08-06T06:48:25;99383.25;;;18.12;100.00
18533;BME280;9396;51.510;11.934;2023-08-06T06:50:52;99390.84;;;18.04;100.00
18533;BME280;9396;51.510;11.934;2023-08-06T06:53:18;99388.97;;;18.04;100.00
18533;BME280;9396;51.510;11.934;2023-08-06T06:55:45;99383.41;;;18.17;100.00
18533;BME280;9396;51.510;11.934;2023-08-06T06:58:14;99384.72;;;18.27;100.00
18533;BME280;9396;51.510;11.934;2023-08-06T07:00:41;99382.19;;;18.32;100.00
18533;BME280;9396;51.510;11.934;2023-08-06T07:03:09;99384.19;;;18.36;100.00
18533;BME280;9396;51.510;11.934;2023-08-06T07:05:36;99384.19;;;18.36;100.00
18533;BME280;9396;51.510;11.934;2023-08-06T07:08:03;99380.75;;;18.47;100.00
18533;BME280;9396;51.510;11.934;2023-08-06T07:10:30;99375.97;;;18.49;100.00
18533;BME280;9396;51.510;11.934;2023-08-06T07:12:57;99380.91;;;18.64;100.00
18533;BME280;9396;51.510;11.934;2023-08-06T07:15:23;99372.38;;;18.78;99.03
18533;BME280;9396;51.510;11.934;2023-08-06T07:17:50;99375.66;;;18.80;99.25
18533;BME280;9396;51.510;11.934;2023-08-06T07:20:18;99376.75;;;18.91;98.65
18533;BME280;9396;51.510;11.934;2023-08-06T07:22:45;99370.66;;;18.95;97.44
18533;BME280;9396;51.510;11.934;2023-08-06T07:25:12;99371.94;;;18.93;96.78
18533;BME280;9396;51.510;11.934;2023-08-06T07:27:38;99373.56;;;18.82;97.34
18533;BME280;9396;51.510;11.934;2023-08-06T07:30:06;99371.81;;;18.88;96.33
18533;BME280;9396;51.510;11.934;2023-08-06T07:32:33;99374.88;;;18.91;96.93
18533;BME280;9396;51.510;11.934;2023-08-06T07:35:00;99373.22;;;18.90;97.11
18533;BME280;9396;51.510;11.934;2023-08-06T07:37:29;99372.78;;;18.93;96.97
18533;BME280;9396;51.510;11.934;2023-08-06T07:39:56;99370.16;;;18.87;96.82
18533;BME280;9396;51.510;11.934;2023-08-06T07:42:23;99375.91;;;18.90;96.32
18533;BME280;9396;51.510;11.934;2023-08-06T07:44:51;99378.28;;;18.98;96.68
18533;BME280;9396;51.510;11.934;2023-08-06T07:47:19;99372.53;;;19.06;95.77
18533;BME280;9396;51.510;11.934;2023-08-06T07:49:45;99369.16;;;19.11;95.93
18533;BME280;9396;51.510;11.934;2023-08-06T07:52:12;99379.66;;;18.89;95.56
18533;BME280;9396;51.510;11.934;2023-08-06T07:54:40;99364.69;;;18.93;95.33
18533;BME280;9396;51.510;11.934;2023-08-06T07:57:07;99358.09;;;18.89;95.89
18533;BME280;9396;51.510;11.934;2023-08-06T07:59:33;99369.00;;;18.94;95.58
18533;BME280;9396;51.510;11.934;2023-08-06T08:02:00;99365.38;;;19.00;95.33
18533;BME280;9396;51.510;11.934;2023-08-06T08:04:27;99358.84;;;19.08;95.15
18533;BME280;9396;51.510;11.934;2023-08-06T08:06:54;99362.44;;;19.13;94.16
18533;BME280;9396;51.510;11.934;2023-08-06T08:09:20;99364.78;;;18.98;94.71
18533;BME280;9396;51.510;11.934;2023-08-06T08:11:48;99373.59;;;19.05;93.91
18533;BME280;9396;51.510;11.934;2023-08-06T08:14:15;99362.94;;;19.10;94.04
18533;BME280;9396;51.510;11.934;2023-08-06T08:16:42;99364.94;;;19.15;94.24
18533;BME280;9396;51.510;11.934;2023-08-06T08:19:09;99371.38;;;19.14;94.61
18533;BME280;9396;51.510;11.934;2023-08-06T08:21:35;99368.56;;;19.09;95.53
18533;BME280;9396;51.510;11.934;2023-08-06T08:24:03;99360.00;;;19.23;96.63
18533;BME280;9396;51.510;11.934;2023-08-06T08:26:30;99353.34;;;19.38;94.65
18533;BME280;9396;51.510;11.934;2023-08-06T08:28:58;99356.16;;;19.54;95.71
18533;BME280;9396;51.510;11.934;2023-08-06T08:31:25;99355.41;;;19.70;95.35
18533;BME280;9396;51.510;11.934;2023-08-06T08:33:51;99356.22;;;19.71;93.29
18533;BME280;9396;51.510;11.934;2023-08-06T08:36:18;99346.16;;;19.66;93.60
18533;BME280;9396;51.510;11.934;2023-08-06T08:38:46;99350.63;;;19.61;94.09
18533;BME280;9396;51.510;11.934;2023-08-06T08:41:12;99355.66;;;19.57;94.60
18533;BME280;9396;51.510;11.934;2023-08-06T08:43:39;99350.47;;;19.67;94.69
18533;BME280;9396;51.510;11.934;2023-08-06T08:46:09;99343.19;;;19.79;93.08
18533;BME280;9396;51.510;11.934;2023-08-06T08:48:37;99344.88;;;19.97;92.65
18533;BME280;9396;51.510;11.934;2023-08-06T08:51:04;99337.13;;;20.00;91.64
18533;BME280;9396;51.510;11.934;2023-08-06T08:53:33;99334.94;;;20.26;92.27
18533;BME280;9396;51.510;11.934;2023-08-06T08:56:01;99332.78;;;20.27;92.40
18533;BME280;9396;51.510;11.934;2023-08-06T08:58:28;99338.16;;;20.39;92.52
18533;BME280;9396;51.510;11.934;2023-08-06T09:00:54;99325.72;;;20.38;91.15
18533;BME280;9396;51.510;11.934;2023-08-06T09:03:23;99322.56;;;20.30;91.22
18533;BME280;9396;51.510;11.934;2023-08-06T09:05:53;99326.69;;;20.32;92.70
18533;BME280;9396;51.510;11.934;2023-08-06T09:08:24;99312.03;;;20.45;90.81
18533;BME280;9396;51.510;11.934;2023-08-06T09:10:53;99307.22;;;20.47;90.91
18533;BME280;9396;51.510;11.934;2023-08-06T09:13:20;99307.13;;;20.58;90.36
18533;BME280;9396;51.510;11.934;2023-08-06T09:15:48;99309.75;;;20.53;90.22
18533;BME280;9396;51.510;11.934;2023-08-06T09:18:26;99305.59;;;20.62;90.54
18533;BME280;9396;51.510;11.934;2023-08-06T09:20:54;99300.91;;;20.74;90.59
18533;BME280;9396;51.510;11.934;2023-08-06T09:23:27;99299.03;;;20.91;89.95
18533;BME280;9396;51.510;11.934;2023-08-06T09:25:55;99291.66;;;21.03;89.29
18533;BME280;9396;51.510;11.934;2023-08-06T09:28:21;99300.09;;;21.07;89.04
18533;BME280;9396;51.510;11.934;2023-08-06T09:30:50;99297.22;;;21.13;88.53
18533;BME280;9396;51.510;11.934;2023-08-06T09:33:18;99303.00;;;21.22;88.18
18533;BME280;9396;51.510;11.934;2023-08-06T09:35:47;99296.88;;;21.26;86.29
18533;BME280;9396;51.510;11.934;2023-08-06T09:38:13;99292.50;;;21.25;87.19
18533;BME280;9396;51.510;11.934;2023-08-06T09:40:40;99297.44;;;21.28;86.53
18533;BME280;9396;51.510;11.934;2023-08-06T09:43:07;99291.38;;;21.21;85.00
18533;BME280;9396;51.510;11.934;2023-08-06T09:45:35;99291.13;;;21.23;85.30
18533;BME280;9396;51.510;11.934;2023-08-06T09:48:03;99283.84;;;21.23;87.26
18533;BME280;9396;51.510;11.934;2023-08-06T09:50:31;99285.84;;;21.33;87.57
18533;BME280;9396;51.510;11.934;2023-08-06T09:53:01;99290.91;;;21.46;87.94
18533;BME280;9396;51.510;11.934;2023-08-06T09:55:28;99280.66;;;21.48;85.29
18533;BME280;9396;51.510;11.934;2023-08-06T09:57:55;99280.81;;;21.63;87.24
18533;BME280;9396;51.510;11.934;2023-08-06T10:00:23;99270.25;;;21.62;86.23
18533;BME280;9396;51.510;11.934;2023-08-06T10:02:50;99269.19;;;21.63;86.51
18533;BME280;9396;51.510;11.934;2023-08-06T10:05:20;99267.66;;;21.72;85.60
18533;BME280;9396;51.510;11.934;2023-08-06T10:07:48;99256.59;;;21.73;84.49
18533;BME280;9396;51.510;11.934;2023-08-06T10:10:17;99267.97;;;21.75;85.36
18533;BME280;9396;51.510;11.934;2023-08-06T10:12:46;99264.53;;;21.80;84.74
18533;BME280;9396;51.510;11.934;2023-08-06T10:15:17;99265.38;;;21.80;84.63
18533;BME280;9396;51.510;11.934;2023-08-06T10:17:49;99259.19;;;21.85;84.65
18533;BME280;9396;51.510;11.934;2023-08-06T10:20:18;99253.75;;;21.85;83.85
18533;BME280;9396;51.510;11.934;2023-08-06T10:22:59;99257.91;;;21.92;84.18
18533;BME280;9396;51.510;11.934;2023-08-06T10:25:30;99244.97;;;21.99;83.35
18533;BME280;9396;51.510;11.934;2023-08-06T10:27:57;99246.38;;;22.02;82.29
18533;BME280;9396;51.510;11.934;2023-08-06T10:30:25;99236.28;;;21.97;80.50
18533;BME280;9396;51.510;11.934;2023-08-06T10:32:54;99237.97;;;22.03;82.09
18533;BME280;9396;51.510;11.934;2023-08-06T10:35:35;99236.50;;;22.17;81.40
18533;BME280;9396;51.510;11.934;2023-08-06T10:38:07;99234.47;;;22.34;82.07
18533;BME280;9396;51.510;11.934;2023-08-06T10:40:36;99220.38;;;22.38;81.26
18533;BME280;9396;51.510;11.934;2023-08-06T10:43:03;99220.19;;;22.44;77.86
18533;BME280;9396;51.510;11.934;2023-08-06T10:45:34;99214.72;;;22.39;76.49
18533;BME280;9396;51.510;11.934;2023-08-06T10:48:01;99215.09;;;22.53;79.66
18533;BME280;9396;51.510;11.934;2023-08-06T10:50:28;99213.53;;;22.57;77.88
18533;BME280;9396;51.510;11.934;2023-08-06T10:52:56;99205.44;;;22.62;77.05
18533;BME280;9396;51.510;11.934;2023-08-06T10:55:24;99202.44;;;22.63;75.64
18533;BME280;9396;51.510;11.934;2023-08-06T10:57:53;99200.88;;;22.67;76.41
18533;BME280;9396;51.510;11.934;2023-08-06T11:00:21;99194.63;;;22.72;77.56
18533;BME280;9396;51.510;11.934;2023-08-06T11:02:49;99188.94;;;22.73;79.11
18533;BME280;9396;51.510;11.934;2023-08-06T11:05:16;99181.94;;;22.82;77.79
18533;BME280;9396;51.510;11.934;2023-08-06T11:07:43;99180.88;;;22.78;75.81
18533;BME280;9396;51.510;11.934;2023-08-06T11:10:11;99174.03;;;22.71;74.66
18533;BME280;9396;51.510;11.934;2023-08-06T11:12:38;99190.09;;;22.82;75.06
18533;BME280;9396;51.510;11.934;2023-08-06T11:15:08;99166.78;;;22.86;75.87
18533;BME280;9396;51.510;11.934;2023-08-06T11:17:35;99159.97;;;22.79;78.11
18533;BME280;9396;51.510;11.934;2023-08-06T11:20:03;99170.03;;;22.83;74.54
18533;BME280;9396;51.510;11.934;2023-08-06T11:22:31;99167.88;;;22.85;74.89
18533;BME280;9396;51.510;11.934;2023-08-06T11:24:58;99164.94;;;22.92;78.10
18533;BME280;9396;51.510;11.934;2023-08-06T11:27:26;99162.47;;;22.90;77.00
18533;BME280;9396;51.510;11.934;2023-08-06T11:29:53;99152.47;;;22.91;76.04
18533;BME280;9396;51.510;11.934;2023-08-06T11:32:22;99161.91;;;22.83;74.03
18533;BME280;9396;51.510;11.934;2023-08-06T11:34:48;99157.06;;;22.54;79.42
18533;BME280;9396;51.510;11.934;2023-08-06T11:37:15;99161.09;;;22.46;79.01
18533;BME280;9396;51.510;11.934;2023-08-06T11:39:46;99168.00;;;22.27;80.23
18533;BME280;9396;51.510;11.934;2023-08-06T11:42:13;99163.22;;;22.07;79.22
18533;BME280;9396;51.510;11.934;2023-08-06T11:44:40;99155.06;;;22.02;77.30
18533;BME280;9396;51.510;11.934;2023-08-06T11:47:13;99158.56;;;21.98;78.51
18533;BME280;9396;51.510;11.934;2023-08-06T11:49:42;99154.75;;;21.99;76.43
18533;BME280;9396;51.510;11.934;2023-08-06T11:52:14;99157.03;;;22.07;76.75
18533;BME280;9396;51.510;11.934;2023-08-06T11:54:43;99154.91;;;22.14;75.10
18533;BME280;9396;51.510;11.934;2023-08-06T11:57:11;99144.03;;;22.09;74.78
18533;BME280;9396;51.510;11.934;2023-08-06T11:59:38;99150.34;;;22.19;74.91
18533;BME280;9396;51.510;11.934;2023-08-06T12:02:08;99149.78;;;22.17;72.12
18533;BME280;9396;51.510;11.934;2023-08-06T12:05:03;99158.22;;;22.21;71.90
18533;BME280;9396;51.510;11.934;2023-08-06T12:07:31;99149.91;;;22.01;70.80
18533;BME280;9396;51.510;11.934;2023-08-06T12:09:59;99153.63;;;21.95;70.65
18533;BME280;9396;51.510;11.934;2023-08-06T12:12:25;99147.88;;;21.86;71.00
18533;BME280;9396;51.510;11.934;2023-08-06T12:14:52;99145.50;;;21.95;74.42
18533;BME280;9396;51.510;11.934;2023-08-06T12:17:19;99151.19;;;21.93;73.36
18533;BME280;9396;51.510;11.934;2023-08-06T12:19:45;99148.38;;;21.78;73.67
18533;BME280;9396;51.510;11.934;2023-08-06T12:22:14;99153.94;;;21.72;73.30
18533;BME280;9396;51.510;11.934;2023-08-06T12:24:41;99151.22;;;21.72;75.44
18533;BME280;9396;51.510;11.934;2023-08-06T12:27:08;99147.50;;;21.78;74.28
18533;BME280;9396;51.510;11.934;2023-08-06T12:29:35;99135.63;;;21.79;74.91
18533;BME280;9396;51.510;11.934;2023-08-06T12:32:04;99123.72;;;21.80;77.32
18533;BME280;9396;51.510;11.934;2023-08-06T12:34:30;99140.03;;;21.85;76.85
18533;BME280;9396;51.510;11.934;2023-08-06T12:36:57;99141.19;;;21.94;77.23
18533;BME280;9396;51.510;11.934;2023-08-06T12:39:25;99137.31;;;21.85;72.96
18533;BME280;9396;51.510;11.934;2023-08-06T12:41:54;99136.00;;;21.87;73.13
18533;BME280;9396;51.510;11.934;2023-08-06T12:44:20;99133.13;;;22.04;73.88
18533;BME280;9396;51.510;11.934;2023-08-06T12:46:47;99123.25;;;22.19;77.42
18533;BME280;9396;51.510;11.934;2023-08-06T12:49:14;99119.78;;;22.29;71.42
18533;BME280;9396;51.510;11.934;2023-08-06T12:51:41;99123.97;;;22.47;70.27
18533;BME280;9396;51.510;11.934;2023-08-06T12:54:07;99105.34;;;22.55;70.47
18533;BME280;9396;51.510;11.934;2023-08-06T12:56:35;99107.28;;;22.65;72.39
18533;BME280;9396;51.510;11.934;2023-08-06T12:59:02;99109.25;;;22.74;74.44